Time;durP1;ratioP1;P1;durP2;ratioP2;P2;SDS_P1;SDS_P2;PMS_P1;PMS_P2;Temp;Humidity;BMP_temperature;BMP_pressure;BME280_temperature;BME280_humidity;BME280_pressure;Samples;Min_cycle;Max_cycle;Signal;HPM_P1;HPM_P2
2023/04/16 00:00:49;;;;;;;;;;;;;;;;;;7366063;19;1853;-68
2023/04/16 00:03:17;;;;;;;;;;;;;;;;;;7369113;19;2005;-63
2023/04/16 00:05:45;;;;;;;;;;;;;;;;;;7367117;19;2103;-64
2023/04/16 00:08:14;;;;;;;;;;;;;;;;;;7367043;19;1835;-65
2023/04/16 00:10:42;;;;;;;;;;;;;;;;;;7365912;19;1845;-64
2023/04/16 00:13:11;;;;;;;;;;;;;;;;;;7366648;19;1661;-65
2023/04/16 00:15:39;;;;;;;;;;;;;;;;;;7366979;19;1823;-65
2023/04/16 00:18:07;;;;;;;;;;;;;;;;;;7368585;19;1772;-65
2023/04/16 00:20:35;;;;;;;;;;;;;;;;;;7366842;19;2048;-65
2023/04/16 00:23:03;;;;;;;;;;;;;;;;;;7368786;19;2004;-66
2023/04/16 00:25:31;;;;;;;;;;;;;;;;;;7369052;19;2056;-66
2023/04/16 00:27:59;;;;;;;;;;;;;;;;;;7366482;19;2080;-65
2023/04/16 00:30:28;;;;;;;;;;;;;;;;;;7363368;19;2171;-65
2023/04/16 00:32:56;;;;;;;;;;;;;;;;;;7365441;19;1796;-65
2023/04/16 00:35:24;;;;;;;;;;;;;;;;;;7364316;19;1873;-65
2023/04/16 00:37:52;;;;;;;;;;;;;;;;;;7362696;19;791;-65
2023/04/16 00:40:21;;;;;;;;;;;;;;;;;;7363785;19;1852;-66
2023/04/16 00:42:49;;;;;;;;;;;;;;;;;;7367223;19;1842;-65
2023/04/16 00:45:17;;;;;;;;;;;;;;;;;;7365097;19;2184;-65
2023/04/16 00:47:45;;;;;;;;;;;;;;;;;;7367714;19;1814;-65
2023/04/16 00:50:13;;;;;;;;;;;;;;;;;;7364590;19;1863;-67
2023/04/16 00:52:41;;;;;;;;;;;;;;;;;;7362888;19;908;-66
2023/04/16 00:55:12;;;;;;;;;;;;;;;;;;7364038;19;945;-66
2023/04/16 00:57:40;;;;;;;;;;;;;;;;;;7362390;19;775;-66
2023/04/16 01:00:08;;;;;;;;;;;;;;;;;;7369079;19;2076;-66
2023/04/16 01:02:36;;;;;;;;;;;;;;;;;;7370199;19;814;-66
2023/04/16 01:05:05;;;;;;;;;;;;;;;;;;7368387;19;846;-65
2023/04/16 01:07:33;;;;;;;;;;;;;;;;;;7368847;19;834;-66
2023/04/16 01:10:01;;;;;;;;;;;;;;;;;;7369769;19;1841;-66
2023/04/16 01:12:29;;;;;;;;;;;;;;;;;;7369787;19;779;-65
2023/04/16 01:14:57;;;;;;;;;;;;;;;;;;7370292;19;911;-65
2023/04/16 01:17:25;;;;;;;;;;;;;;;;;;7371574;19;1787;-65
2023/04/16 01:19:53;;;;;;;;;;;;;;;;;;7368433;19;2063;-66
2023/04/16 01:22:22;;;;;;;;;;;;;;;;;;7369616;19;897;-65
2023/04/16 01:24:50;;;;;;;;;;;;;;;;;;7369485;19;857;-65
2023/04/16 01:27:18;;;;;;;;;;;;;;;;;;7369556;19;937;-65
2023/04/16 01:29:46;;;;;;;;;;;;;;;;;;7367657;19;2087;-65
2023/04/16 01:32:17;;;;;;;;;;;;;;;;;;7368612;19;850;-66
2023/04/16 01:34:45;;;;;;;;;;;;;;;;;;7367583;19;840;-66
2023/04/16 01:37:13;;;;;;;;;;;;;;;;;;7368277;19;804;-66
2023/04/16 01:39:41;;;;;;;;;;;;;;;;;;7368608;19;1787;-65
2023/04/16 01:42:09;;;;;;;;;;;;;;;;;;7367652;19;861;-65
2023/04/16 01:44:37;;;;;;;;;;;;;;;;;;7369341;19;865;-65
2023/04/16 01:47:06;;;;;;;;;;;;;;;;;;7371408;19;2001;-66
2023/04/16 01:49:34;;;;;;;;;;;;;;;;;;7368465;19;1870;-66
2023/04/16 01:52:03;;;;;;;;;;;;;;;;;;7366655;19;894;-64
2023/04/16 01:54:31;;;;;;;;;;;;;;;;;;7373271;19;1894;-66
2023/04/16 01:57:00;;;;;;;;;;;;;;;;;;7370851;19;1928;-65
2023/04/16 01:59:28;;;;;;;;;;;;;;;;;;7367875;19;1373;-63
2023/04/16 02:01:57;;;;;;;;;;;;;;;;;;7367417;19;910;-64
2023/04/16 02:04:25;;;;;;;;;;;;;;;;;;7367493;19;860;-65
2023/04/16 02:06:53;;;;;;;;;;;;;;;;;;7370777;19;1552;-66
2023/04/16 02:09:21;;;;;;;;;;;;;;;;;;7365880;19;1849;-65
2023/04/16 02:11:49;;;;;;;;;;;;;;;;;;7366603;19;842;-65
2023/04/16 02:14:17;;;;;;;;;;;;;;;;;;7367663;19;826;-66
2023/04/16 02:16:45;;;;;;;;;;;;;;;;;;7371260;19;2046;-66
2023/04/16 02:19:23;;;;;;;;;;;;;;;;;;7366079;19;1337;-66
2023/04/16 02:21:51;;;;;;;;;;;;;;;;;;7366647;19;800;-66
2023/04/16 02:24:19;;;;;;;;;;;;;;;;;;7367158;19;896;-64
2023/04/16 02:26:47;;;;;;;;;;;;;;;;;;7369805;19;2063;-63
2023/04/16 02:29:18;;;;;;;;;;;;;;;;;;7365251;19;1869;-65
2023/04/16 02:31:52;;;;;;;;;;;;;;;;;;7366733;19;889;-65
2023/04/16 02:34:21;;;;;;;;;;;;;;;;;;7366678;19;769;-66
2023/04/16 02:36:49;;;;;;;;;;;;;;;;;;7370338;19;1841;-61
2023/04/16 02:39:17;;;;;;;;;;;;;;;;;;7365279;19;1281;-61
2023/04/16 02:41:46;;;;;;;;;;;;;;;;;;7366764;19;811;-63
2023/04/16 02:44:14;;;;;;;;;;;;;;;;;;7365826;19;903;-62
2023/04/16 02:46:42;;;;;;;;;;;;;;;;;;7371142;19;1868;-63
2023/04/16 02:49:10;;;;;;;;;;;;;;;;;;7366417;19;1294;-61
2023/04/16 02:51:39;;;;;;;;;;;;;;;;;;7364802;19;1854;-62
2023/04/16 02:54:07;;;;;;;;;;;;;;;;;;7365806;19;822;-63
2023/04/16 02:56:35;;;;;;;;;;;;;;;;;;7369227;19;1831;-63
2023/04/16 02:59:03;;;;;;;;;;;;;;;;;;7366536;19;1266;-62
2023/04/16 03:01:32;;;;;;;;;;;;;;;;;;7366310;19;894;-64
2023/04/16 03:04:00;;;;;;;;;;;;;;;;;;7366290;19;967;-64
2023/04/16 03:06:28;;;;;;;;;;;;;;;;;;7368524;19;1795;-64
2023/04/16 03:08:57;;;;;;;;;;;;;;;;;;7365191;19;1258;-63
2023/04/16 03:11:25;;;;;;;;;;;;;;;;;;7363428;19;1841;-63
2023/04/16 03:13:53;;;;;;;;;;;;;;;;;;7366691;19;881;-64
2023/04/16 03:16:21;;;;;;;;;;;;;;;;;;7369712;19;1649;-65
2023/04/16 03:18:49;;;;;;;;;;;;;;;;;;7364408;19;874;-64
2023/04/16 03:21:18;;;;;;;;;;;;;;;;;;7362398;19;1290;-63
2023/04/16 03:23:46;;;;;;;;;;;;;;;;;;7364554;19;844;-64
2023/04/16 03:26:15;;;;;;;;;;;;;;;;;;7369791;19;2021;-64
2023/04/16 03:28:43;;;;;;;;;;;;;;;;;;7364173;19;879;-64
2023/04/16 03:31:12;;;;;;;;;;;;;;;;;;7361640;19;1853;-63
2023/04/16 03:33:41;;;;;;;;;;;;;;;;;;7364368;19;845;-64
2023/04/16 03:36:09;;;;;;;;;;;;;;;;;;7367796;19;2009;-63
2023/04/16 03:38:37;;;;;;;;;;;;;;;;;;7365941;19;817;-63
2023/04/16 03:41:05;;;;;;;;;;;;;;;;;;7364485;19;1887;-64
2023/04/16 03:43:34;;;;;;;;;;;;;;;;;;7365164;19;839;-64
2023/04/16 03:46:03;;;;;;;;;;;;;;;;;;7367807;19;1823;-62
2023/04/16 03:48:31;;;;;;;;;;;;;;;;;;7365630;19;794;-63
2023/04/16 03:50:59;;;;;;;;;;;;;;;;;;7362696;19;1876;-64
2023/04/16 03:53:28;;;;;;;;;;;;;;;;;;7365379;19;803;-63
2023/04/16 03:55:56;;;;;;;;;;;;;;;;;;7366536;19;1699;-62
2023/04/16 03:58:25;;;;;;;;;;;;;;;;;;7364195;19;877;-62
2023/04/16 04:00:54;;;;;;;;;;;;;;;;;;7361060;19;1353;-63
2023/04/16 04:03:22;;;;;;;;;;;;;;;;;;7363927;19;845;-63
2023/04/16 04:05:51;;;;;;;;;;;;;;;;;;7365760;19;1764;-63
2023/04/16 04:08:26;;;;;;;;;;;;;;;;;;7366043;19;2033;-63
2023/04/16 04:10:54;;;;;;;;;;;;;;;;;;7365693;19;2032;-63
2023/04/16 04:13:24;;;;;;;;;;;;;;;;;;7364446;19;843;-63
2023/04/16 04:15:53;;;;;;;;;;;;;;;;;;7365373;19;1825;-63
2023/04/16 04:18:22;;;;;;;;;;;;;;;;;;7366681;19;1865;-62
2023/04/16 04:20:50;;;;;;;;;;;;;;;;;;7364632;19;1833;-63
2023/04/16 04:23:20;;;;;;;;;;;;;;;;;;7364342;19;1840;-62
2023/04/16 04:25:49;;;;;;;;;;;;;;;;;;7365339;19;1649;-63
2023/04/16 04:28:17;;;;;;;;;;;;;;;;;;7365691;19;1827;-62
2023/04/16 04:30:45;;;;;;;;;;;;;;;;;;7364281;19;1861;-63
2023/04/16 04:33:14;;;;;;;;;;;;;;;;;;7365677;19;826;-62
2023/04/16 04:35:43;;;;;;;;;;;;;;;;;;7371250;19;2063;-63
2023/04/16 04:38:11;;;;;;;;;;;;;;;;;;7370739;19;797;-61
2023/04/16 04:40:39;;;;;;;;;;;;;;;;;;7368394;19;1286;-62
2023/04/16 04:43:09;;;;;;;;;;;;;;;;;;7369920;19;860;-62
2023/04/16 04:45:37;;;;;;;;;;;;;;;;;;7370577;19;1574;-62
2023/04/16 04:48:06;;;;;;;;;;;;;;;;;;7368600;19;779;-59
2023/04/16 04:50:34;;;;;;;;;;;;;;;;;;7368596;19;1842;-61
2023/04/16 04:53:08;;;;;;;;;;;;;;;;;;7369080;19;775;-62
2023/04/16 04:55:36;;;;;;;;;;;;;;;;;;7370854;19;1875;-63
2023/04/16 04:58:05;;;;;;;;;;;;;;;;;;7368778;19;883;-62
2023/04/16 05:00:33;;;;;;;;;;;;;;;;;;7369233;19;1880;-63
2023/04/16 05:03:01;;;;;;;;;;;;;;;;;;7367929;19;778;-62
2023/04/16 05:05:29;;;;;;;;;;;;;;;;;;7368805;19;1858;-63
2023/04/16 05:07:57;;;;;;;;;;;;;;;;;;7369018;19;790;-63
2023/04/16 05:10:25;;;;;;;;;;;;;;;;;;7368460;19;1845;-63
2023/04/16 05:12:54;;;;;;;;;;;;;;;;;;7370098;19;830;-63
2023/04/16 05:15:22;;;;;;;;;;;;;;;;;;7370408;19;2026;-62
2023/04/16 05:17:50;;;;;;;;;;;;;;;;;;7373628;19;1245;-61
2023/04/16 05:20:18;;;;;;;;;;;;;;;;;;7368490;19;1355;-63
2023/04/16 05:22:46;;;;;;;;;;;;;;;;;;7369080;19;809;-63
2023/04/16 05:25:16;;;;;;;;;;;;;;;;;;7369419;19;2017;-61
2023/04/16 05:27:44;;;;;;;;;;;;;;;;;;7367823;19;858;-61
2023/04/16 05:30:12;;;;;;;;;;;;;;;;;;7367323;19;1860;-64
2023/04/16 05:32:40;;;;;;;;;;;;;;;;;;7371841;19;1766;-64
2023/04/16 05:35:08;;;;;;;;;;;;;;;;;;7368497;19;1814;-64
2023/04/16 05:37:36;;;;;;;;;;;;;;;;;;7367333;19;793;-65
2023/04/16 05:40:05;;;;;;;;;;;;;;;;;;7369302;19;1672;-61
2023/04/16 05:42:33;;;;;;;;;;;;;;;;;;7371491;19;1811;-62
2023/04/16 05:45:01;;;;;;;;;;;;;;;;;;7368972;19;1670;-62
2023/04/16 05:47:29;;;;;;;;;;;;;;;;;;7367577;19;865;-63
2023/04/16 05:49:57;;;;;;;;;;;;;;;;;;7367498;19;1275;-62
2023/04/16 05:52:25;;;;;;;;;;;;;;;;;;7369035;19;1857;-63
2023/04/16 05:54:53;;;;;;;;;;;;;;;;;;7368193;19;1826;-64
2023/04/16 05:57:22;;;;;;;;;;;;;;;;;;7368653;19;784;-63
2023/04/16 05:59:50;;;;;;;;;;;;;;;;;;7367306;19;1274;-65
2023/04/16 06:02:18;;;;;;;;;;;;;;;;;;7368139;19;856;-63
2023/04/16 06:04:46;;;;;;;;;;;;;;;;;;7368432;19;1918;-64
2023/04/16 06:07:14;;;;;;;;;;;;;;;;;;7368877;19;1814;-62
2023/04/16 06:09:42;;;;;;;;;;;;;;;;;;7364623;19;1337;-60
2023/04/16 06:12:11;;;;;;;;;;;;;;;;;;7366260;19;1845;-64
2023/04/16 06:14:39;;;;;;;;;;;;;;;;;;7368153;19;860;-63
2023/04/16 06:17:07;;;;;;;;;;;;;;;;;;7367612;19;821;-64
2023/04/16 06:19:35;;;;;;;;;;;;;;;;;;7366824;19;1266;-64
2023/04/16 06:22:05;;;;;;;;;;;;;;;;;;7368111;19;854;-62
2023/04/16 06:24:33;;;;;;;;;;;;;;;;;;7368240;19;889;-63
2023/04/16 06:27:01;;;;;;;;;;;;;;;;;;7366770;19;799;-64
2023/04/16 06:29:29;;;;;;;;;;;;;;;;;;7366538;19;1278;-63
2023/04/16 06:31:57;;;;;;;;;;;;;;;;;;7365249;19;1872;-64
2023/04/16 06:34:26;;;;;;;;;;;;;;;;;;7368221;19;849;-64
2023/04/16 06:36:54;;;;;;;;;;;;;;;;;;7367164;19;844;-62
2023/04/16 06:39:22;;;;;;;;;;;;;;;;;;7367180;19;1288;-64
2023/04/16 06:41:50;;;;;;;;;;;;;;;;;;7367191;19;802;-63
2023/04/16 06:44:19;;;;;;;;;;;;;;;;;;7366974;19;861;-64
2023/04/16 06:46:47;;;;;;;;;;;;;;;;;;7367164;19;818;-60
2023/04/16 06:49:15;;;;;;;;;;;;;;;;;;7366737;19;1333;-64
2023/04/16 06:51:43;;;;;;;;;;;;;;;;;;7365164;19;1845;-64
2023/04/16 06:54:11;;;;;;;;;;;;;;;;;;7367148;19;770;-64
2023/04/16 06:56:40;;;;;;;;;;;;;;;;;;7363721;19;862;-64
2023/04/16 06:59:08;;;;;;;;;;;;;;;;;;7366177;19;1294;-64
2023/04/16 07:01:36;;;;;;;;;;;;;;;;;;7366853;19;802;-62
2023/04/16 07:04:05;;;;;;;;;;;;;;;;;;7367647;19;883;-63
2023/04/16 07:06:33;;;;;;;;;;;;;;;;;;7367519;19;879;-61
2023/04/16 07:09:01;;;;;;;;;;;;;;;;;;7367403;19;1340;-63
2023/04/16 07:11:29;;;;;;;;;;;;;;;;;;7366824;19;1845;-64
2023/04/16 07:13:57;;;;;;;;;;;;;;;;;;7367889;19;845;-63
2023/04/16 07:16:25;;;;;;;;;;;;;;;;;;7367515;19;801;-61
2023/04/16 07:18:54;;;;;;;;;;;;;;;;;;7366377;19;882;-64
2023/04/16 07:21:22;;;;;;;;;;;;;;;;;;7363590;19;1322;-64
2023/04/16 07:23:50;;;;;;;;;;;;;;;;;;7367493;19;885;-65
2023/04/16 07:26:18;;;;;;;;;;;;;;;;;;7367146;19;847;-65
2023/04/16 07:28:46;;;;;;;;;;;;;;;;;;7366099;19;858;-64
2023/04/16 07:31:15;;;;;;;;;;;;;;;;;;7363360;19;1861;-62
2023/04/16 07:33:43;;;;;;;;;;;;;;;;;;7365538;19;917;-64
2023/04/16 07:36:11;;;;;;;;;;;;;;;;;;7365476;19;829;-64
2023/04/16 07:38:39;;;;;;;;;;;;;;;;;;7364796;19;868;-64
2023/04/16 07:41:07;;;;;;;;;;;;;;;;;;7362820;19;1267;-64
2023/04/16 07:43:35;;;;;;;;;;;;;;;;;;7365658;19;829;-63
2023/04/16 07:46:03;;;;;;;;;;;;;;;;;;7364728;19;813;-64
2023/04/16 07:48:32;;;;;;;;;;;;;;;;;;7364078;19;836;-64
2023/04/16 07:51:00;;;;;;;;;;;;;;;;;;7362398;19;1835;-65
2023/04/16 07:53:28;;;;;;;;;;;;;;;;;;7365309;19;860;-64
2023/04/16 07:55:56;;;;;;;;;;;;;;;;;;7365256;19;799;-64
2023/04/16 07:58:24;;;;;;;;;;;;;;;;;;7365045;19;807;-65
2023/04/16 08:00:52;;;;;;;;;;;;;;;;;;7362528;19;1286;-64
2023/04/16 08:03:20;;;;;;;;;;;;;;;;;;7365629;19;833;-64
2023/04/16 08:05:49;;;;;;;;;;;;;;;;;;7364684;19;785;-64
2023/04/16 08:08:17;;;;;;;;;;;;;;;;;;7363501;19;839;-64
2023/04/16 08:10:45;;;;;;;;;;;;;;;;;;7361851;19;1274;-64
2023/04/16 08:13:13;;;;;;;;;;;;;;;;;;7361482;19;1846;-64
2023/04/16 08:15:41;;;;;;;;;;;;;;;;;;7364375;19;841;-63
2023/04/16 08:18:14;;;;;;;;;;;;;;;;;;7365417;19;849;-64
2023/04/16 08:20:42;;;;;;;;;;;;;;;;;;7362309;19;1337;-64
2023/04/16 08:23:10;;;;;;;;;;;;;;;;;;7364423;19;858;-64
2023/04/16 08:25:38;;;;;;;;;;;;;;;;;;7364357;19;766;-64
2023/04/16 08:28:06;;;;;;;;;;;;;;;;;;7364760;19;838;-64
2023/04/16 08:30:34;;;;;;;;;;;;;;;;;;7361915;19;1308;-63
2023/04/16 08:33:03;;;;;;;;;;;;;;;;;;7361265;19;1846;-62
2023/04/16 08:35:31;;;;;;;;;;;;;;;;;;7364131;19;727;-64
2023/04/16 08:38:00;;;;;;;;;;;;;;;;;;7362976;19;870;-63
2023/04/16 08:40:28;;;;;;;;;;;;;;;;;;7363042;19;1279;-63
2023/04/16 08:42:57;;;;;;;;;;;;;;;;;;7364905;19;874;-64
2023/04/16 08:45:25;;;;;;;;;;;;;;;;;;7364011;19;684;-63
2023/04/16 08:47:53;;;;;;;;;;;;;;;;;;7363130;19;836;-63
2023/04/16 08:50:21;;;;;;;;;;;;;;;;;;7362430;19;1290;-63
2023/04/16 08:52:49;;;;;;;;;;;;;;;;;;7362609;19;1849;-62
2023/04/16 08:55:18;;;;;;;;;;;;;;;;;;7365437;19;868;-62
2023/04/16 08:57:46;;;;;;;;;;;;;;;;;;7364846;19;930;-66
2023/04/16 09:00:14;;;;;;;;;;;;;;;;;;7362232;19;1320;-63
2023/04/16 09:02:42;;;;;;;;;;;;;;;;;;7364065;19;832;-63
2023/04/16 09:05:10;;;;;;;;;;;;;;;;;;7363484;19;802;-60
2023/04/16 09:07:38;;;;;;;;;;;;;;;;;;7362810;19;834;-64
2023/04/16 09:10:06;;;;;;;;;;;;;;;;;;7362088;19;1211;-65
2023/04/16 09:12:35;;;;;;;;;;;;;;;;;;7361236;19;1851;-65
2023/04/16 09:15:03;;;;;;;;;;;;;;;;;;7363033;19;821;-65
2023/04/16 09:17:32;;;;;;;;;;;;;;;;;;7362075;19;787;-63
2023/04/16 09:20:00;;;;;;;;;;;;;;;;;;7361765;19;1278;-64
2023/04/16 09:22:28;;;;;;;;;;;;;;;;;;7370035;19;781;-65
2023/04/16 09:24:56;;;;;;;;;;;;;;;;;;7369363;19;805;-65
2023/04/16 09:27:24;;;;;;;;;;;;;;;;;;7369343;19;798;-65
2023/04/16 09:29:52;;;;;;;;;;;;;;;;;;7367781;19;1697;-65
2023/04/16 09:32:20;;;;;;;;;;;;;;;;;;7367709;19;1841;-64
2023/04/16 09:34:49;;;;;;;;;;;;;;;;;;7368817;19;841;-65
2023/04/16 09:37:17;;;;;;;;;;;;;;;;;;7369302;19;851;-64
2023/04/16 09:39:45;;;;;;;;;;;;;;;;;;7367174;19;1290;-63
2023/04/16 09:42:14;;;;;;;;;;;;;;;;;;7369054;19;829;-63
2023/04/16 09:44:42;;;;;;;;;;;;;;;;;;7369308;19;747;-65
2023/04/16 09:47:10;;;;;;;;;;;;;;;;;;7368723;19;925;-65
2023/04/16 09:49:38;;;;;;;;;;;;;;;;;;7367175;19;1278;-64
2023/04/16 09:52:06;;;;;;;;;;;;;;;;;;7368156;19;1849;-64
2023/04/16 09:54:34;;;;;;;;;;;;;;;;;;7370111;19;1840;-63
2023/04/16 09:57:02;;;;;;;;;;;;;;;;;;7369549;19;786;-64
2023/04/16 09:59:32;;;;;;;;;;;;;;;;;;7369318;19;1364;-64
2023/04/16 10:02:01;;;;;;;;;;;;;;;;;;7369495;19;1806;-63
2023/04/16 10:04:29;;;;;;;;;;;;;;;;;;7369395;19;770;-62
2023/04/16 10:06:57;;;;;;;;;;;;;;;;;;7368957;19;873;-60
2023/04/16 10:09:25;;;;;;;;;;;;;;;;;;7368725;19;1990;-60
2023/04/16 10:11:53;;;;;;;;;;;;;;;;;;7369666;19;2019;-64
2023/04/16 10:14:21;;;;;;;;;;;;;;;;;;7371505;19;2031;-64
2023/04/16 10:16:50;;;;;;;;;;;;;;;;;;7369187;19;809;-64
2023/04/16 10:19:18;;;;;;;;;;;;;;;;;;7367365;19;1278;-64
2023/04/16 10:21:46;;;;;;;;;;;;;;;;;;7369745;19;2028;-61
2023/04/16 10:24:15;;;;;;;;;;;;;;;;;;7368420;19;787;-64
2023/04/16 10:26:43;;;;;;;;;;;;;;;;;;7366911;19;771;-63
2023/04/16 10:29:11;;;;;;;;;;;;;;;;;;7367087;19;1337;-61
2023/04/16 10:31:39;;;;;;;;;;;;;;;;;;7367484;19;1861;-64
2023/04/16 10:34:08;;;;;;;;;;;;;;;;;;7370288;19;1716;-64
2023/04/16 10:36:36;;;;;;;;;;;;;;;;;;7367339;19;799;-64
2023/04/16 10:39:04;;;;;;;;;;;;;;;;;;7366846;19;1277;-64
2023/04/16 10:41:32;;;;;;;;;;;;;;;;;;7367667;19;897;-65
2023/04/16 10:44:00;;;;;;;;;;;;;;;;;;7368893;19;802;-64
2023/04/16 10:46:28;;;;;;;;;;;;;;;;;;7371494;19;2009;-62
2023/04/16 10:48:57;;;;;;;;;;;;;;;;;;7368501;19;817;-63
2023/04/16 10:51:25;;;;;;;;;;;;;;;;;;7370072;19;1809;-63
2023/04/16 10:53:53;;;;;;;;;;;;;;;;;;7365736;19;1850;-63
2023/04/16 10:56:21;;;;;;;;;;;;;;;;;;7369531;19;2039;-63
2023/04/16 10:58:49;;;;;;;;;;;;;;;;;;7371174;19;1988;-64
2023/04/16 11:01:18;;;;;;;;;;;;;;;;;;7366761;19;1333;-64
2023/04/16 11:03:46;;;;;;;;;;;;;;;;;;7367348;19;835;-64
2023/04/16 11:06:15;;;;;;;;;;;;;;;;;;7371556;19;2017;-65
2023/04/16 11:08:44;;;;;;;;;;;;;;;;;;7368205;19;826;-64
2023/04/16 11:11:12;;;;;;;;;;;;;;;;;;7365528;19;1345;-64
2023/04/16 11:13:41;;;;;;;;;;;;;;;;;;7366081;19;1859;-64
2023/04/16 11:16:09;;;;;;;;;;;;;;;;;;7368673;19;873;-64
2023/04/16 11:18:37;;;;;;;;;;;;;;;;;;7373361;19;1894;-64
2023/04/16 11:21:05;;;;;;;;;;;;;;;;;;7367463;19;1872;-64
2023/04/16 11:23:33;;;;;;;;;;;;;;;;;;7368702;19;860;-64
2023/04/16 11:26:02;;;;;;;;;;;;;;;;;;7369283;19;937;-65
2023/04/16 11:28:30;;;;;;;;;;;;;;;;;;7367402;19;845;-64
2023/04/16 11:30:58;;;;;;;;;;;;;;;;;;7366717;19;1876;-67
2023/04/16 11:33:26;;;;;;;;;;;;;;;;;;7365863;19;1849;-64
2023/04/16 11:35:54;;;;;;;;;;;;;;;;;;7366889;19;809;-64
2023/04/16 11:38:23;;;;;;;;;;;;;;;;;;7366351;19;779;-64
2023/04/16 11:40:52;;;;;;;;;;;;;;;;;;7366488;19;1286;-63
2023/04/16 11:43:21;;;;;;;;;;;;;;;;;;7365884;19;926;-63
2023/04/16 11:45:49;;;;;;;;;;;;;;;;;;7371248;19;1745;-63
2023/04/16 11:48:17;;;;;;;;;;;;;;;;;;7371189;19;1810;-62
2023/04/16 11:50:45;;;;;;;;;;;;;;;;;;7364533;19;1328;-63
2023/04/16 11:53:14;;;;;;;;;;;;;;;;;;7365003;19;1841;-63
2023/04/16 11:55:43;;;;;;;;;;;;;;;;;;7366674;19;806;-64
2023/04/16 11:58:11;;;;;;;;;;;;;;;;;;7365411;19;759;-63
2023/04/16 12:00:40;;;;;;;;;;;;;;;;;;7365449;19;1716;-64
2023/04/16 12:03:08;;;;;;;;;;;;;;;;;;7366531;19;843;-62
2023/04/16 12:05:37;;;;;;;;;;;;;;;;;;7365706;19;877;-64
2023/04/16 12:08:05;;;;;;;;;;;;;;;;;;7364697;19;790;-62
2023/04/16 12:10:33;;;;;;;;;;;;;;;;;;7363689;19;1337;-64
2023/04/16 12:13:02;;;;;;;;;;;;;;;;;;7363668;19;1834;-63
2023/04/16 12:15:30;;;;;;;;;;;;;;;;;;7365700;19;834;-64
2023/04/16 12:17:58;;;;;;;;;;;;;;;;;;7369219;19;1767;-65
2023/04/16 12:20:26;;;;;;;;;;;;;;;;;;7362613;19;1285;-63
2023/04/16 12:22:58;;;;;;;;;;;;;;;;;;7366297;19;802;-63
2023/04/16 12:25:26;;;;;;;;;;;;;;;;;;7365492;19;723;-64
2023/04/16 12:27:56;;;;;;;;;;;;;;;;;;7364411;19;788;-62
2023/04/16 12:30:25;;;;;;;;;;;;;;;;;;7364884;19;2045;-64
2023/04/16 12:32:53;;;;;;;;;;;;;;;;;;7364905;19;1850;-64
2023/04/16 12:35:21;;;;;;;;;;;;;;;;;;7365413;19;853;-64
2023/04/16 12:37:49;;;;;;;;;;;;;;;;;;7364695;19;871;-64
2023/04/16 12:40:17;;;;;;;;;;;;;;;;;;7362926;19;1341;-63
2023/04/16 12:42:45;;;;;;;;;;;;;;;;;;7364944;19;756;-65
2023/04/16 12:45:13;;;;;;;;;;;;;;;;;;7367221;19;1770;-64
2023/04/16 12:47:42;;;;;;;;;;;;;;;;;;7362386;19;854;-65
2023/04/16 12:50:10;;;;;;;;;;;;;;;;;;7364035;19;1309;-63
2023/04/16 12:52:38;;;;;;;;;;;;;;;;;;7366015;19;2151;-63
2023/04/16 12:55:06;;;;;;;;;;;;;;;;;;7367903;19;1846;-64
2023/04/16 12:57:34;;;;;;;;;;;;;;;;;;7370510;19;1755;-62
2023/04/16 13:00:03;;;;;;;;;;;;;;;;;;7369954;19;1281;-63
2023/04/16 13:02:31;;;;;;;;;;;;;;;;;;7372129;19;895;-64
2023/04/16 13:04:59;;;;;;;;;;;;;;;;;;7370857;19;809;-60
2023/04/16 13:07:30;;;;;;;;;;;;;;;;;;7370074;19;1682;-60
2023/04/16 13:09:58;;;;;;;;;;;;;;;;;;7369802;19;1373;-62
2023/04/16 13:12:27;;;;;;;;;;;;;;;;;;7376872;19;2013;-64
2023/04/16 13:14:55;;;;;;;;;;;;;;;;;;7374450;19;2025;-62
2023/04/16 13:17:23;;;;;;;;;;;;;;;;;;7373298;19;1638;-62
2023/04/16 13:19:51;;;;;;;;;;;;;;;;;;7371906;19;1305;-63
2023/04/16 13:22:19;;;;;;;;;;;;;;;;;;7372722;19;827;-63
2023/04/16 13:24:47;;;;;;;;;;;;;;;;;;7374739;19;1810;-61
2023/04/16 13:27:16;;;;;;;;;;;;;;;;;;7372435;19;856;-62
2023/04/16 13:29:45;;;;;;;;;;;;;;;;;;7371823;19;1359;-59
2023/04/16 13:32:13;;;;;;;;;;;;;;;;;;7371444;19;841;-61
2023/04/16 13:34:41;;;;;;;;;;;;;;;;;;7370135;19;1857;-62
2023/04/16 13:37:09;;;;;;;;;;;;;;;;;;7370049;19;812;-63
2023/04/16 13:39:38;;;;;;;;;;;;;;;;;;7368645;19;1369;-63
2023/04/16 13:42:06;;;;;;;;;;;;;;;;;;7370226;19;812;-64
2023/04/16 13:44:34;;;;;;;;;;;;;;;;;;7370750;19;1849;-63
2023/04/16 13:47:02;;;;;;;;;;;;;;;;;;7369800;19;813;-64
2023/04/16 13:49:32;;;;;;;;;;;;;;;;;;7371970;19;1854;-63
2023/04/16 13:52:00;;;;;;;;;;;;;;;;;;7369238;19;882;-62
2023/04/16 13:54:28;;;;;;;;;;;;;;;;;;7367376;19;1871;-64
2023/04/16 13:56:56;;;;;;;;;;;;;;;;;;7368354;19;826;-64
2023/04/16 13:59:25;;;;;;;;;;;;;;;;;;7368260;19;1344;-65
2023/04/16 14:01:53;;;;;;;;;;;;;;;;;;7370774;19;1784;-65
2023/04/16 14:04:21;;;;;;;;;;;;;;;;;;7368355;19;798;-65
2023/04/16 14:06:49;;;;;;;;;;;;;;;;;;7368829;19;798;-65
2023/04/16 14:09:17;;;;;;;;;;;;;;;;;;7368088;19;1282;-65
2023/04/16 14:11:45;;;;;;;;;;;;;;;;;;7368841;19;850;-64
2023/04/16 14:14:13;;;;;;;;;;;;;;;;;;7368327;19;1856;-64
2023/04/16 14:16:42;;;;;;;;;;;;;;;;;;7370416;19;2074;-63
2023/04/16 14:19:10;;;;;;;;;;;;;;;;;;7371181;19;2025;-63
2023/04/16 14:21:38;;;;;;;;;;;;;;;;;;7367751;19;803;-64
2023/04/16 14:24:08;;;;;;;;;;;;;;;;;;7368797;19;890;-64
2023/04/16 14:26:36;;;;;;;;;;;;;;;;;;7367672;19;876;-63
2023/04/16 14:29:04;;;;;;;;;;;;;;;;;;7367719;19;1322;-64
2023/04/16 14:31:32;;;;;;;;;;;;;;;;;;7372955;19;2178;-64
2023/04/16 14:34:00;;;;;;;;;;;;;;;;;;7366864;19;1837;-64
2023/04/16 14:36:28;;;;;;;;;;;;;;;;;;7366822;19;796;-65
2023/04/16 14:38:57;;;;;;;;;;;;;;;;;;7366091;19;810;-65
2023/04/16 14:41:25;;;;;;;;;;;;;;;;;;7365341;19;1352;-64
2023/04/16 14:43:53;;;;;;;;;;;;;;;;;;7369355;19;1815;-64
2023/04/16 14:46:21;;;;;;;;;;;;;;;;;;7369969;19;2017;-64
2023/04/16 14:48:49;;;;;;;;;;;;;;;;;;7366764;19;855;-64
2023/04/16 14:51:17;;;;;;;;;;;;;;;;;;7366084;19;1263;-65
2023/04/16 14:53:45;;;;;;;;;;;;;;;;;;7365812;19;1853;-64
2023/04/16 14:56:14;;;;;;;;;;;;;;;;;;7367344;19;837;-63
2023/04/16 14:58:42;;;;;;;;;;;;;;;;;;7369853;19;1917;-63
2023/04/16 15:01:12;;;;;;;;;;;;;;;;;;7365292;19;1258;-64
2023/04/16 15:03:40;;;;;;;;;;;;;;;;;;7366527;19;702;-63
2023/04/16 15:06:08;;;;;;;;;;;;;;;;;;7365457;19;853;-64
2023/04/16 15:08:36;;;;;;;;;;;;;;;;;;7366987;19;810;-63
2023/04/16 15:11:05;;;;;;;;;;;;;;;;;;7364842;19;1284;-64
2023/04/16 15:13:35;;;;;;;;;;;;;;;;;;7367187;19;1843;-64
2023/04/16 15:16:03;;;;;;;;;;;;;;;;;;7366333;19;866;-65
2023/04/16 15:18:31;;;;;;;;;;;;;;;;;;7363741;19;739;-64
2023/04/16 15:20:59;;;;;;;;;;;;;;;;;;7367056;19;1909;-64
2023/04/16 15:23:27;;;;;;;;;;;;;;;;;;7371190;19;1800;-64
2023/04/16 15:25:55;;;;;;;;;;;;;;;;;;7366904;19;786;-63
2023/04/16 15:28:24;;;;;;;;;;;;;;;;;;7365274;19;795;-63
2023/04/16 15:30:52;;;;;;;;;;;;;;;;;;7364512;19;1816;-63
2023/04/16 15:33:20;;;;;;;;;;;;;;;;;;7370479;19;1862;-64
2023/04/16 15:35:50;;;;;;;;;;;;;;;;;;7369306;19;1765;-63
2023/04/16 15:38:19;;;;;;;;;;;;;;;;;;7365639;19;771;-64
2023/04/16 15:40:48;;;;;;;;;;;;;;;;;;7363960;19;2020;-65
2023/04/16 15:43:16;;;;;;;;;;;;;;;;;;7366581;19;824;-63
2023/04/16 15:45:44;;;;;;;;;;;;;;;;;;7365851;19;805;-63
2023/04/16 15:48:13;;;;;;;;;;;;;;;;;;7365226;19;826;-63
2023/04/16 15:50:41;;;;;;;;;;;;;;;;;;7363608;19;1293;-62
2023/04/16 15:53:09;;;;;;;;;;;;;;;;;;7370110;19;1543;-63
2023/04/16 15:55:37;;;;;;;;;;;;;;;;;;7365232;19;825;-63
2023/04/16 15:58:05;;;;;;;;;;;;;;;;;;7364790;19;809;-65
2023/04/16 16:00:33;;;;;;;;;;;;;;;;;;7363684;19;1317;-62
2023/04/16 16:03:02;;;;;;;;;;;;;;;;;;7369959;19;2008;-63
2023/04/16 16:05:30;;;;;;;;;;;;;;;;;;7365425;19;835;-64
2023/04/16 16:07:58;;;;;;;;;;;;;;;;;;7364940;19;893;-62
2023/04/16 16:10:26;;;;;;;;;;;;;;;;;;7363498;19;1345;-64
2023/04/16 16:12:56;;;;;;;;;;;;;;;;;;7368236;19;1760;-65
2023/04/16 16:15:24;;;;;;;;;;;;;;;;;;7362808;19;1834;-65
2023/04/16 16:17:52;;;;;;;;;;;;;;;;;;7364659;19;839;-64
2023/04/16 16:20:21;;;;;;;;;;;;;;;;;;7366969;19;2023;-64
2023/04/16 16:22:51;;;;;;;;;;;;;;;;;;7368440;19;2109;-64
2023/04/16 16:25:20;;;;;;;;;;;;;;;;;;7364538;19;925;-64
2023/04/16 16:27:48;;;;;;;;;;;;;;;;;;7363765;19;783;-64
2023/04/16 16:30:16;;;;;;;;;;;;;;;;;;7364957;19;1682;-64
2023/04/16 16:32:44;;;;;;;;;;;;;;;;;;7364913;19;798;-63
2023/04/16 16:35:12;;;;;;;;;;;;;;;;;;7362037;19;1833;-64
2023/04/16 16:37:41;;;;;;;;;;;;;;;;;;7364189;19;798;-65
2023/04/16 16:40:09;;;;;;;;;;;;;;;;;;7366383;19;1808;-64
2023/04/16 16:42:37;;;;;;;;;;;;;;;;;;7364389;19;1804;-64
2023/04/16 16:45:05;;;;;;;;;;;;;;;;;;7363953;19;807;-63
2023/04/16 16:47:33;;;;;;;;;;;;;;;;;;7364186;19;1021;-63
2023/04/16 16:50:01;;;;;;;;;;;;;;;;;;7362738;19;1855;-63
2023/04/16 16:52:30;;;;;;;;;;;;;;;;;;7363396;19;1818;-63
2023/04/16 16:54:59;;;;;;;;;;;;;;;;;;7361506;19;1873;-63
2023/04/16 16:57:27;;;;;;;;;;;;;;;;;;7362674;19;860;-62
2023/04/16 16:59:55;;;;;;;;;;;;;;;;;;7365507;19;1838;-62
2023/04/16 17:02:24;;;;;;;;;;;;;;;;;;7363834;19;853;-64
2023/04/16 17:04:52;;;;;;;;;;;;;;;;;;7367286;19;2100;-63
2023/04/16 17:07:20;;;;;;;;;;;;;;;;;;7363833;19;879;-62
2023/04/16 17:09:48;;;;;;;;;;;;;;;;;;7362568;19;2057;-62
2023/04/16 17:12:16;;;;;;;;;;;;;;;;;;7363768;19;858;-62
2023/04/16 17:14:45;;;;;;;;;;;;;;;;;;7366262;19;1850;-62
2023/04/16 17:17:13;;;;;;;;;;;;;;;;;;7364721;19;1443;-60